Time;durP1;ratioP1;P1;durP2;ratioP2;P2;SDS_P1;SDS_P2;PMS_P1;PMS_P2;Temp;Humidity;BMP_temperature;BMP_pressure;BME280_temperature;BME280_humidity;BME280_pressure;Samples;Min_cycle;Max_cycle;Signal;HPM_P1;HPM_P2
2023/11/19 00:00:11;;;;;;;6.40;5.10;;;;;;;-1.10;68.61;100340.75;105933;1258;72876;-73
2023/11/19 00:02:41;;;;;;;7.20;4.30;;;;;;;-1.12;68.39;100337.39;105956;1257;69980;-75
2023/11/19 00:05:11;;;;;;;6.50;3.70;;;;;;;-1.16;68.25;100334.65;105915;1257;71344;-76
2023/11/19 00:07:44;;;;;;;8.50;3.80;;;;;;;-1.22;68.39;100331.27;105913;1254;60300;-75
2023/11/19 00:10:12;;;;;;;5.60;4.10;;;;;;;-1.24;68.43;100330.88;105944;1254;60888;-76
2023/11/19 00:12:44;;;;;;;7.70;5.20;;;;;;;-1.26;68.61;100330.43;105897;1258;73858;-75
2023/11/19 00:15:13;;;;;;;6.60;4.70;;;;;;;-1.29;68.37;100327.13;105968;1257;69249;-75
2023/11/19 00:17:44;;;;;;;7.50;4.60;;;;;;;-1.33;68.52;100324.73;105964;1259;71040;-75
2023/11/19 00:20:15;;;;;;;6.90;4.40;;;;;;;-1.35;68.60;100325.20;106059;1256;60543;-74
2023/11/19 00:22:43;;;;;;;6.20;4.30;;;;;;;-1.37;68.68;100320.40;105915;1259;60520;-75
2023/11/19 00:25:14;;;;;;;7.40;4.20;;;;;;;-1.36;68.75;100319.54;105913;1258;72648;-76
2023/11/19 00:27:44;;;;;;;6.90;4.40;;;;;;;-1.36;68.79;100321.09;105903;1259;69934;-76
2023/11/19 00:30:13;;;;;;;7.80;4.50;;;;;;;-1.37;68.80;100318.48;105954;1260;71156;-75
2023/11/19 00:32:41;;;;;;;6.00;3.70;;;;;;;-1.25;68.63;100322.77;105847;1262;60362;-75
2023/11/19 00:35:14;;;;;;;5.10;3.50;;;;;;;-1.11;68.45;100324.97;105924;1260;60370;-74
2023/11/19 00:37:42;;;;;;;4.80;3.70;;;;;;;-1.07;68.83;100328.43;106035;1257;71459;-75
2023/11/19 00:40:10;;;;;;;4.70;3.70;;;;;;;-1.05;68.61;100329.56;106016;1260;69043;-76
2023/11/19 00:42:39;;;;;;;6.20;4.30;;;;;;;-1.05;68.49;100335.11;108009;1257;72809;-76
2023/11/19 00:45:09;;;;;;;6.90;4.30;;;;;;;-1.05;68.51;100332.69;106515;1259;60606;-75
2023/11/19 00:47:37;;;;;;;5.80;4.30;;;;;;;-1.06;68.19;100330.28;105864;1255;61986;-74
2023/11/19 00:50:06;;;;;;;5.90;3.90;;;;;;;-1.07;68.21;100332.79;105883;1258;73829;-76
2023/11/19 00:52:33;;;;;;;6.40;4.70;;;;;;;-1.09;68.27;100325.91;105848;1257;70284;-76
2023/11/19 00:55:01;;;;;;;7.00;4.60;;;;;;;-1.08;68.30;100322.05;106036;1258;72682;-77
2023/11/19 00:57:28;;;;;;;7.00;4.40;;;;;;;-1.09;68.13;100319.48;105850;1254;60463;-80
2023/11/19 00:59:55;;;;;;;5.50;4.00;;;;;;;-1.11;68.10;100321.54;106012;1258;60540;-77
2023/11/19 01:02:23;;;;;;;8.00;4.80;;;;;;;-1.14;68.27;100319.77;106665;1257;73847;-77
2023/11/19 01:04:50;;;;;;;7.50;4.90;;;;;;;-1.16;68.28;100314.79;106748;1260;69061;-78
2023/11/19 01:07:18;;;;;;;7.60;5.00;;;;;;;-1.17;68.26;100314.34;106632;1253;71405;-79
2023/11/19 01:09:46;;;;;;;7.80;5.00;;;;;;;-1.18;68.12;100311.77;106114;1267;60594;-79
2023/11/19 01:12:14;;;;;;;5.90;4.30;;;;;;;-1.20;68.06;100312.91;106414;1254;60460;-76
2023/11/19 01:14:42;;;;;;;6.50;3.90;;;;;;;-1.21;68.21;100312.14;106034;1259;73741;-75
2023/11/19 01:17:10;;;;;;;4.70;3.80;;;;;;;-1.22;68.21;100311.98;106439;1257;70474;-77
2023/11/19 01:19:37;;;;;;;6.90;3.90;;;;;;;-1.23;68.18;100312.71;106241;1253;71395;-76
2023/11/19 01:22:05;;;;;;;5.50;3.80;;;;;;;-1.22;68.13;100309.05;105954;1259;60530;-80
2023/11/19 01:24:33;;;;;;;4.80;3.20;;;;;;;-1.12;67.93;100313.05;106040;1255;60424;-78
2023/11/19 01:27:01;;;;;;;7.30;3.80;;;;;;;-1.00;67.70;100304.61;106047;1260;73966;-78
2023/11/19 01:29:29;;;;;;;5.10;3.40;;;;;;;-0.98;67.53;100297.77;105945;1254;69917;-75
2023/11/19 01:31:56;;;;;;;5.60;3.90;;;;;;;-1.01;67.57;100296.33;106171;1255;71522;-77
2023/11/19 01:34:24;;;;;;;7.90;3.70;;;;;;;-1.04;67.81;100297.67;105893;1257;60465;-77
2023/11/19 01:36:51;;;;;;;6.90;4.20;;;;;;;-1.05;67.82;100287.46;106041;1260;60357;-76
2023/11/19 01:39:20;;;;;;;6.60;3.70;;;;;;;-1.04;67.69;100287.06;106114;1254;72931;-79
2023/11/19 01:41:47;;;;;;;6.20;4.30;;;;;;;-1.06;67.53;100284.20;105915;1254;70638;-77
2023/11/19 01:44:16;;;;;;;6.60;3.90;;;;;;;-1.10;67.51;100283.04;106027;1257;72520;-78
2023/11/19 01:46:45;;;;;;;8.60;5.20;;;;;;;-1.13;67.52;100280.45;105933;1259;60565;-77
2023/11/19 01:49:14;;;;;;;6.90;4.40;;;;;;;-1.17;67.59;100274.58;106109;1253;60540;-76
2023/11/19 01:51:42;;;;;;;6.50;4.10;;;;;;;-1.22;67.43;100276.20;106276;1258;73805;-75
2023/11/19 01:54:10;;;;;;;7.00;4.40;;;;;;;-1.27;67.55;100274.91;107268;1254;69513;-76
2023/11/19 01:56:40;;;;;;;5.60;4.10;;;;;;;-1.32;67.58;100279.66;107110;1257;72639;-75
2023/11/19 01:59:09;;;;;;;5.20;3.70;;;;;;;-1.34;67.59;100270.60;107896;1254;60228;-76
2023/11/19 02:01:39;;;;;;;5.70;4.20;;;;;;;-1.36;67.52;100268.58;107819;1257;58750;-76
2023/11/19 02:04:08;;;;;;;4.80;3.20;;;;;;;-1.43;67.61;100264.05;107758;1255;72327;-76
2023/11/19 02:06:40;;;;;;;4.70;3.50;;;;;;;-1.41;67.66;100271.42;107026;1260;67802;-77
2023/11/19 02:09:08;;;;;;;5.50;3.70;;;;;;;-1.41;67.78;100270.39;108210;1253;70889;-75
2023/11/19 02:11:35;;;;;;;5.90;3.70;;;;;;;-1.42;67.69;100280.35;107723;1254;60338;-74
2023/11/19 02:14:04;;;;;;;5.30;3.80;;;;;;;-1.44;67.70;100283.21;106702;1259;60417;-77
2023/11/19 02:16:32;;;;;;;4.80;3.30;;;;;;;-1.41;67.65;100281.68;107698;1260;72376;-76
2023/11/19 02:19:00;;;;;;;4.80;2.60;;;;;;;-1.29;67.52;100279.35;106164;1254;69174;-78
2023/11/19 02:21:27;;;;;;;5.20;3.20;;;;;;;-1.25;67.44;100273.05;106066;1254;72773;-76
2023/11/19 02:23:57;;;;;;;7.90;3.50;;;;;;;-1.26;67.60;100268.94;106061;1254;60497;-76
2023/11/19 02:26:50;;;;;;;4.40;3.00;;;;;;;-1.26;67.74;100259.54;105981;1254;60559;-76
2023/11/19 02:29:18;;;;;;;5.20;3.80;;;;;;;-1.26;67.80;100258.15;105967;1254;72580;-72
2023/11/19 02:31:45;;;;;;;4.70;3.70;;;;;;;-1.26;67.74;100250.71;106030;1257;69471;-76
2023/11/19 02:34:13;;;;;;;5.00;3.50;;;;;;;-1.27;67.69;100251.27;106135;1254;72731;-76
2023/11/19 02:36:41;;;;;;;4.80;3.80;;;;;;;-1.28;67.73;100253.94;106024;1254;60587;-74
2023/11/19 02:39:12;;;;;;;5.50;3.00;;;;;;;-1.31;67.63;100264.47;106020;1254;60619;-74
2023/11/19 02:41:39;;;;;;;4.60;2.90;;;;;;;-1.33;67.76;100266.52;106169;1258;73950;-77
2023/11/19 02:44:07;;;;;;;5.10;3.20;;;;;;;-1.34;67.91;100272.14;106007;1259;69027;-76
2023/11/19 02:46:35;;;;;;;3.90;3.20;;;;;;;-1.36;67.79;100275.20;106125;1251;71452;-77
2023/11/19 02:49:02;;;;;;;4.40;3.40;;;;;;;-1.37;67.88;100269.35;106037;1254;60492;-76
2023/11/19 02:51:30;;;;;;;5.20;3.50;;;;;;;-1.39;67.92;100264.39;105854;1254;60488;-77
2023/11/19 02:53:58;;;;;;;4.60;3.50;;;;;;;-1.41;67.69;100261.19;106207;1254;72596;-79
2023/11/19 02:56:26;;;;;;;7.50;3.90;;;;;;;-1.44;67.75;100258.58;106529;1254;70058;-76
2023/11/19 02:58:54;;;;;;;5.00;3.90;;;;;;;-1.45;67.93;100255.48;106354;1255;73009;-77
2023/11/19 03:01:30;;;;;;;5.70;4.00;;;;;;;-1.47;67.96;100256.30;106286;1257;60536;-79
2023/11/19 03:04:01;;;;;;;4.10;2.70;;;;;;;-1.48;68.02;100247.99;106793;1254;60341;-77
2023/11/19 03:06:30;;;;;;;4.50;2.90;;;;;;;-1.35;67.90;100244.39;107489;1254;71874;-77
2023/11/19 03:08:58;;;;;;;5.00;3.20;;;;;;;-1.29;67.87;100242.34;107429;1254;69414;-76
2023/11/19 03:11:25;;;;;;;3.80;3.00;;;;;;;-1.30;67.94;100234.93;106899;1255;71632;-78
2023/11/19 03:13:53;;;;;;;7.30;3.30;;;;;;;-1.31;67.96;100240.19;106403;1253;60573;-76
2023/11/19 03:16:20;;;;;;;4.70;3.20;;;;;;;-1.33;67.68;100235.58;106604;1254;60523;-76
2023/11/19 03:18:48;;;;;;;4.30;3.00;;;;;;;-1.34;67.55;100228.02;106670;1254;73872;-77
2023/11/19 03:21:16;;;;;;;5.40;3.40;;;;;;;-1.38;67.60;100226.10;106736;1255;68972;-77
2023/11/19 03:23:43;;;;;;;4.50;2.90;;;;;;;-1.41;67.54;100223.84;106678;1251;72115;-78
2023/11/19 03:26:11;;;;;;;4.60;3.20;;;;;;;-1.44;67.45;100219.48;106477;1251;60389;-78
2023/11/19 03:28:39;;;;;;;7.20;3.70;;;;;;;-1.49;67.55;100218.70;106524;1253;60441;-77
2023/11/19 03:31:08;;;;;;;5.00;3.60;;;;;;;-1.54;67.67;100209.92;106164;1254;74044;-79
2023/11/19 03:33:37;;;;;;;5.80;4.00;;;;;;;-1.59;67.77;100204.93;106078;1257;69212;-77
2023/11/19 03:36:07;;;;;;;4.70;3.20;;;;;;;-1.60;67.81;100201.52;106289;1254;222737;-79
2023/11/19 03:41:55;;;;;;;5.50;4.00;;;;;;;-1.61;67.86;100194.85;103083;1292;615193;-78
2023/11/19 03:44:22;;;;;;;5.90;4.60;;;;;;;-1.63;67.92;100196.64;106182;1257;59336;-79
2023/11/19 03:46:48;;;;;;;9.80;4.80;;;;;;;-1.63;68.01;100193.19;106512;1263;59209;-77
2023/11/19 03:49:16;;;;;;;10.20;5.10;;;;;;;-1.63;68.05;100195.78;108863;1257;72212;-75
2023/11/19 03:51:42;;;;;;;8.20;5.90;;;;;;;-1.62;68.03;100193.85;106425;1258;68875;-76
2023/11/19 03:54:09;;;;;;;8.90;5.20;;;;;;;-1.49;68.07;100192.47;105641;1260;212678;-77
2023/11/19 03:56:36;;;;;;;6.40;4.00;;;;;;;-1.39;67.82;100194.72;106001;1254;59417;-75
2023/11/19 03:59:02;;;;;;;10.30;6.00;;;;;;;-1.39;67.89;100190.73;106196;1254;59198;-76
2023/11/19 04:01:29;;;;;;;9.20;6.40;;;;;;;-1.39;67.96;100191.77;106457;1254;72128;-77
2023/11/19 04:03:56;;;;;;;11.70;8.00;;;;;;;-1.40;67.80;100193.38;106026;1258;69941;-74
2023/11/19 04:06:23;;;;;;;10.60;7.50;;;;;;;-1.40;67.81;100199.42;105919;1262;71170;-77
2023/11/19 04:08:50;;;;;;;8.10;5.90;;;;;;;-1.40;67.93;100200.14;105861;1254;59797;-75
2023/11/19 04:11:18;;;;;;;6.00;4.30;;;;;;;-1.40;67.77;100195.27;105992;1256;60047;-75
2023/11/19 04:13:44;;;;;;;6.10;3.70;;;;;;;-1.43;67.49;100191.93;105819;1260;72848;-76
2023/11/19 04:16:11;;;;;;;3.80;2.90;;;;;;;-1.47;67.47;100189.05;106012;1254;70430;-76
2023/11/19 04:18:37;;;;;;;5.00;3.50;;;;;;;-1.53;67.50;100191.95;106216;1251;71371;-76
2023/11/19 04:21:07;;;;;;;4.50;3.50;;;;;;;-1.56;67.44;100191.63;106237;1254;59624;-77
2023/11/19 04:23:34;;;;;;;4.80;3.40;;;;;;;-1.59;67.35;100196.61;106369;1251;60300;-77
2023/11/19 04:26:04;;;;;;;4.20;3.20;;;;;;;-1.63;67.28;100200.97;106329;1251;71573;-75
2023/11/19 04:28:34;;;;;;;4.50;4.00;;;;;;;-1.65;67.65;100193.62;106288;1253;70152;-75
2023/11/19 04:31:01;;;;;;;5.40;4.40;;;;;;;-1.66;67.63;100190.54;106435;1251;72428;-77
2023/11/19 04:33:28;;;;;;;4.50;3.80;;;;;;;-1.68;67.57;100189.29;106437;1251;59612;-75
2023/11/19 04:35:55;;;;;;;6.00;4.20;;;;;;;-1.70;67.60;100187.82;106276;1251;59727;-79
2023/11/19 04:38:21;;;;;;;4.90;3.40;;;;;;;-1.73;67.70;100184.48;106187;1256;73234;-76
2023/11/19 04:40:48;;;;;;;4.20;3.40;;;;;;;-1.75;67.72;100186.67;105944;1254;70056;-77
2023/11/19 04:43:15;;;;;;;5.10;3.80;;;;;;;-1.77;67.80;100184.34;106165;1256;71544;-75
2023/11/19 04:45:42;;;;;;;4.80;3.10;;;;;;;-1.77;67.85;100193.05;106021;1254;61781;-76
2023/11/19 04:48:09;;;;;;;5.50;3.10;;;;;;;-1.67;67.72;100196.16;106118;1254;59650;-74
2023/11/19 04:50:36;;;;;;;5.40;3.50;;;;;;;-1.56;67.64;100194.55;106018;1257;71609;-74
2023/11/19 04:53:03;;;;;;;7.00;4.00;;;;;;;-1.54;67.72;100187.85;106158;1254;68816;-76
2023/11/19 04:55:32;;;;;;;5.70;3.80;;;;;;;-1.54;67.60;100187.50;106696;1255;72662;-74
2023/11/19 04:57:59;;;;;;;5.80;3.60;;;;;;;-1.54;67.48;100191.70;108462;1253;58385;-76
2023/11/19 05:00:26;;;;;;;6.40;4.30;;;;;;;-1.54;67.35;100197.24;109200;1253;58953;-74
2023/11/19 05:02:53;;;;;;;5.80;3.50;;;;;;;-1.53;67.09;100194.23;109277;1253;71563;-75
2023/11/19 05:05:21;;;;;;;5.80;4.00;;;;;;;-1.53;67.13;100192.67;109222;1254;69112;-74
2023/11/19 05:07:49;;;;;;;4.70;3.40;;;;;;;-1.54;66.96;100191.86;109248;1253;71799;-75
2023/11/19 05:10:16;;;;;;;4.10;2.80;;;;;;;-1.55;66.75;100188.77;109228;1252;58024;-76
2023/11/19 05:12:43;;;;;;;3.90;3.10;;;;;;;-1.56;66.52;100188.80;109022;1254;58106;-75
2023/11/19 05:15:11;;;;;;;5.00;3.20;;;;;;;-1.55;66.63;100194.66;108364;1253;72186;-73
2023/11/19 05:17:38;;;;;;;4.80;3.20;;;;;;;-1.53;66.49;100198.59;108890;1252;69053;-74
2023/11/19 05:20:13;;;;;;;5.50;3.00;;;;;;;-1.53;66.40;100195.59;108281;1253;71352;-73
2023/11/19 05:22:41;;;;;;;8.10;3.10;;;;;;;-1.54;66.03;100187.00;107459;1253;59630;-78
2023/11/19 05:25:11;;;;;;;4.10;2.90;;;;;;;-1.58;65.83;100187.67;106464;1254;60479;-77
2023/11/19 05:27:38;;;;;;;5.10;2.90;;;;;;;-1.60;65.72;100188.51;106448;1256;73066;-74
2023/11/19 05:30:10;;;;;;;5.90;3.30;;;;;;;-1.63;65.72;100188.27;107227;1253;68451;-73
2023/11/19 05:32:37;;;;;;;4.60;3.20;;;;;;;-1.67;65.67;100184.70;108891;1253;70375;-74
2023/11/19 05:35:04;;;;;;;5.00;3.00;;;;;;;-1.70;65.71;100181.38;109196;1254;59196;-76
2023/11/19 05:37:31;;;;;;;5.40;3.20;;;;;;;-1.71;65.84;100182.64;109252;1252;58841;-75
2023/11/19 05:39:59;;;;;;;4.30;3.20;;;;;;;-1.70;65.67;100181.91;108912;1253;71773;-75
2023/11/19 05:42:27;;;;;;;5.60;3.60;;;;;;;-1.69;65.46;100179.09;108831;1254;69060;-77
2023/11/19 05:44:53;;;;;;;4.60;3.10;;;;;;;-1.68;65.62;100180.09;108382;1253;71574;-74
2023/11/19 05:47:20;;;;;;;3.70;2.80;;;;;;;-1.68;65.56;100168.95;109188;1254;59090;-74
2023/11/19 05:49:47;;;;;;;4.30;3.10;;;;;;;-1.66;65.43;100165.04;109195;1253;59004;-74
2023/11/19 05:52:14;;;;;;;4.90;3.20;;;;;;;-1.67;65.41;100165.41;109266;1253;71449;-76
2023/11/19 05:54:41;;;;;;;3.60;2.50;;;;;;;-1.67;65.35;100159.34;109272;1254;69017;-73
2023/11/19 05:57:09;;;;;;;4.40;2.80;;;;;;;-1.65;65.13;100152.65;109224;1252;71228;-75
2023/11/19 05:59:38;;;;;;;3.50;2.50;;;;;;;-1.65;65.05;100154.20;109252;1253;58888;-77
2023/11/19 06:02:06;;;;;;;4.20;3.00;;;;;;;-1.65;64.73;100149.52;109273;1254;58944;-78
2023/11/19 06:04:33;;;;;;;4.20;3.20;;;;;;;-1.64;64.77;100147.40;109500;1252;71478;-77
2023/11/19 06:06:59;;;;;;;3.50;2.70;;;;;;;-1.63;64.77;100146.65;109370;1253;68973;-77
2023/11/19 06:09:26;;;;;;;4.90;2.90;;;;;;;-1.62;64.81;100144.63;109485;1253;71230;-78
2023/11/19 06:11:55;;;;;;;4.30;2.90;;;;;;;-1.62;64.69;100147.98;109358;1252;58588;-77
2023/11/19 06:14:24;;;;;;;4.10;2.90;;;;;;;-1.63;64.64;100143.86;109487;1253;58952;-79
2023/11/19 06:16:51;;;;;;;3.60;2.70;;;;;;;-1.63;64.56;100143.48;109457;1253;71702;-80
2023/11/19 06:19:18;;;;;;;4.10;2.90;;;;;;;-1.63;64.71;100140.91;109350;1254;69073;-79
2023/11/19 06:21:45;;;;;;;3.60;2.80;;;;;;;-1.65;64.40;100144.81;109486;1253;71370;-81
2023/11/19 06:24:12;;;;;;;4.10;2.50;;;;;;;-1.67;64.28;100149.41;109295;1253;59032;-80
2023/11/19 06:26:39;;;;;;;5.20;3.00;;;;;;;-1.69;64.29;100147.80;109424;1253;59417;-79
2023/11/19 06:29:05;;;;;;;3.80;2.60;;;;;;;-1.71;64.25;100145.81;109366;1254;57159;-79
2023/11/19 06:31:32;;;;;;;4.00;2.60;;;;;;;-1.72;64.30;100145.54;109525;1253;69029;-80
2023/11/19 06:33:59;;;;;;;5.60;3.20;;;;;;;-1.72;64.61;100141.01;109290;1253;71256;-79
2023/11/19 06:36:26;;;;;;;4.40;3.00;;;;;;;-1.69;64.73;100138.42;109344;1252;59029;-78
2023/11/19 06:38:55;;;;;;;4.10;2.70;;;;;;;-1.66;64.51;100135.33;109437;1254;58861;-76
2023/11/19 06:41:21;;;;;;;3.40;2.50;;;;;;;-1.66;64.31;100134.10;109414;1253;71534;-79
2023/11/19 06:43:48;;;;;;;3.90;2.40;;;;;;;-1.67;64.01;100128.77;109440;1252;68775;-78
2023/11/19 06:46:16;;;;;;;3.70;2.60;;;;;;;-1.67;63.83;100129.99;109279;1252;71094;-79
2023/11/19 06:48:44;;;;;;;3.50;2.60;;;;;;;-1.66;63.95;100138.11;109142;1252;59493;-78
2023/11/19 06:51:12;;;;;;;6.10;2.50;;;;;;;-1.63;64.21;100135.52;109290;1252;59134;-75
2023/11/19 06:53:41;;;;;;;6.70;2.80;;;;;;;-1.60;63.94;100123.55;108815;1253;71721;-77
2023/11/19 06:56:37;;;;;;;4.30;2.90;;;;;;;-1.60;63.83;100122.00;108874;1256;68822;-78
2023/11/19 06:59:04;;;;;;;4.30;2.90;;;;;;;-1.60;63.90;100119.69;108563;1253;71270;-78
2023/11/19 07:01:36;;;;;;;3.80;2.80;;;;;;;-1.58;63.95;100114.91;109144;1253;58801;-80
2023/11/19 07:04:08;;;;;;;5.10;2.30;;;;;;;-1.56;63.84;100107.69;109062;1256;59084;-79
2023/11/19 07:06:36;;;;;;;;;;;;;;;-1.55;63.66;100101.95;109390;1253;71659;-77
2023/11/19 07:09:09;;;;;;;3.50;2.70;;;;;;;-1.57;63.64;100098.75;109278;1254;68987;-78
2023/11/19 07:11:39;;;;;;;3.20;2.20;;;;;;;-1.58;63.49;100098.43;109203;1256;70589;-77
2023/11/19 07:14:09;;;;;;;4.00;2.70;;;;;;;-1.57;63.41;100099.27;109383;1252;59094;-78
2023/11/19 07:16:39;;;;;;;4.40;2.50;;;;;;;-1.54;63.63;100107.77;109358;1254;59127;-75
2023/11/19 07:19:06;;;;;;;5.10;2.50;;;;;;;-1.50;63.31;100107.73;109372;1253;70858;-75
2023/11/19 07:21:38;;;;;;;5.00;2.40;;;;;;;-1.46;63.42;100105.59;109423;1254;68753;-75
2023/11/19 07:24:13;;;;;;;3.40;2.70;;;;;;;-1.41;63.24;100103.95;109443;1252;71347;-76
2023/11/19 07:26:47;;;;;;;3.10;2.40;;;;;;;-1.35;63.20;100099.14;109173;1254;59705;-82
2023/11/19 07:29:16;;;;;;;3.40;2.50;;;;;;;-1.32;62.82;100102.09;109406;1254;59471;-76
2023/11/19 07:31:56;;;;;;;3.00;2.30;;;;;;;-1.31;62.89;100112.24;109455;1253;72623;-76
2023/11/19 07:34:24;;;;;;;3.90;2.70;;;;;;;-1.29;62.84;100117.21;109441;1253;68790;-77
2023/11/19 07:36:52;;;;;;;3.00;2.30;;;;;;;-1.27;62.74;100119.15;109215;1254;71378;-77
2023/11/19 07:39:20;;;;;;;3.30;2.40;;;;;;;-1.25;62.64;100120.27;108815;1252;58213;-73
2023/11/19 07:41:48;;;;;;;3.10;2.30;;;;;;;-1.22;62.73;100118.91;108723;1253;58895;-74
2023/11/19 07:44:15;;;;;;;2.90;2.20;;;;;;;-1.19;62.67;100113.89;108470;1254;71743;-77
2023/11/19 07:46:45;;;;;;;3.20;2.50;;;;;;;-1.20;62.15;100122.92;108672;1259;68933;-74
2023/11/19 07:49:11;;;;;;;3.20;2.30;;;;;;;-1.24;61.65;100124.77;108354;1254;71092;-75
2023/11/19 07:51:40;;;;;;;3.30;2.20;;;;;;;-1.29;61.57;100125.19;108561;1254;60263;-74
2023/11/19 07:54:07;;;;;;;3.00;2.00;;;;;;;-1.32;61.82;100117.90;108943;1254;60704;-74
2023/11/19 07:56:36;;;;;;;3.20;2.20;;;;;;;-1.31;61.73;100114.35;108947;1254;72360;-75
2023/11/19 07:59:03;;;;;;;2.50;2.10;;;;;;;-1.32;61.65;100115.09;108632;1253;68949;-74
2023/11/19 08:01:30;;;;;;;6.20;2.70;;;;;;;-1.34;61.59;100115.73;108813;1252;71456;-74
2023/11/19 08:03:57;;;;;;;3.30;2.60;;;;;;;-1.35;61.66;100114.59;108809;1254;59083;-76
2023/11/19 08:06:27;;;;;;;2.60;2.30;;;;;;;-1.35;61.89;100115.63;108860;1253;60875;-75
2023/11/19 08:08:56;;;;;;;3.80;2.20;;;;;;;-1.33;61.85;100110.11;108811;1254;72598;-75
2023/11/19 08:11:22;;;;;;;3.50;2.50;;;;;;;-1.31;61.99;100106.71;108645;1254;68850;-74
2023/11/19 08:13:49;;;;;;;2.60;2.10;;;;;;;-1.27;62.19;100107.56;108865;1253;72729;-74
2023/11/19 08:16:17;;;;;;;3.80;2.70;;;;;;;-1.23;62.13;100102.63;109022;1252;58535;-74
2023/11/19 08:18:44;;;;;;;5.70;2.80;;;;;;;-1.18;62.29;100097.33;107640;1254;60483;-74
2023/11/19 08:21:11;;;;;;;4.60;2.80;;;;;;;-1.12;62.08;100096.83;109105;1252;72340;-77
2023/11/19 08:23:38;;;;;;;3.70;3.00;;;;;;;-1.08;62.23;100089.80;109094;1254;69043;-74
2023/11/19 08:26:06;;;;;;;4.40;3.20;;;;;;;-1.02;61.84;100084.28;107994;1254;71230;-73
2023/11/19 08:28:34;;;;;;;4.10;2.80;;;;;;;-0.96;61.80;100083.61;108244;1253;60459;-74
2023/11/19 08:31:01;;;;;;;3.90;2.80;;;;;;;-0.88;61.78;100081.05;108651;1256;58975;-73
2023/11/19 08:33:28;;;;;;;3.60;2.70;;;;;;;-0.79;61.55;100081.38;109155;1253;73926;-74
2023/11/19 08:35:54;;;;;;;3.50;2.30;;;;;;;-0.72;61.27;100077.68;109080;1253;69052;-77
2023/11/19 08:38:22;;;;;;;3.20;2.20;;;;;;;-0.64;61.02;100077.06;109237;1254;71450;-78
2023/11/19 08:40:52;;;;;;;4.90;2.60;;;;;;;-0.56;60.94;100067.92;109029;1254;60412;-75
2023/11/19 08:43:19;;;;;;;3.60;2.50;;;;;;;-0.49;60.76;100062.98;108406;1254;59342;-74
2023/11/19 08:45:45;;;;;;;3.80;2.50;;;;;;;-0.42;60.70;100061.67;108862;1254;73694;-72
2023/11/19 08:48:12;;;;;;;3.80;2.60;;;;;;;-0.36;60.33;100057.89;109096;1252;69154;-77
2023/11/19 08:50:38;;;;;;;4.90;2.50;;;;;;;-0.33;60.06;100050.19;109211;1254;71269;-75
2023/11/19 08:53:06;;;;;;;3.90;2.20;;;;;;;-0.32;59.77;100038.11;108864;1254;59169;-75
2023/11/19 08:55:33;;;;;;;2.10;1.80;;;;;;;-0.29;59.77;100036.56;108892;1252;60284;-76
2023/11/19 08:58:01;;;;;;;4.70;2.90;;;;;;;-0.27;59.72;100039.21;109047;1253;72601;-75
2023/11/19 09:00:27;;;;;;;2.60;2.20;;;;;;;-0.25;59.62;100040.16;109181;1253;68811;-76
2023/11/19 09:02:54;;;;;;;5.80;2.70;;;;;;;-0.23;59.57;100040.33;109224;1252;71241;-75
2023/11/19 09:05:21;;;;;;;4.20;3.00;;;;;;;-0.19;59.49;100038.05;109033;1253;58230;-73
2023/11/19 09:07:49;;;;;;;3.70;3.10;;;;;;;-0.14;59.61;100038.45;109120;1252;60120;-75
2023/11/19 09:10:16;;;;;;;4.50;3.70;;;;;;;-0.10;59.47;100033.17;108851;1258;71407;-72
2023/11/19 09:12:43;;;;;;;3.60;3.00;;;;;;;-0.09;59.21;100033.45;108449;1254;70109;-75
2023/11/19 09:15:13;;;;;;;5.20;2.50;;;;;;;-0.11;59.14;100026.76;108796;1253;71314;-75
2023/11/19 09:17:40;;;;;;;3.10;2.30;;;;;;;-0.15;59.17;100025.43;109018;1253;60460;-75
2023/11/19 09:20:08;;;;;;;2.70;1.90;;;;;;;-0.14;59.28;100020.00;107550;1252;60460;-78
2023/11/19 09:22:36;;;;;;;4.90;2.30;;;;;;;-0.13;59.21;100014.74;107769;1257;73470;-77
2023/11/19 09:25:03;;;;;;;3.40;2.60;;;;;;;-0.12;59.15;100018.33;108506;1256;70943;-76
2023/11/19 09:27:30;;;;;;;3.50;2.60;;;;;;;-0.04;59.25;100025.48;108808;1252;73032;-77
2023/11/19 09:29:58;;;;;;;4.20;2.60;;;;;;;0.09;59.19;100021.77;108559;1254;59056;-76
2023/11/19 09:32:25;;;;;;;3.90;2.80;;;;;;;0.24;58.86;100011.94;107767;1254;60406;-74
2023/11/19 09:34:53;;;;;;;2.90;2.60;;;;;;;0.36;58.18;100017.27;107539;1254;73676;-73
2023/11/19 09:37:20;;;;;;;3.00;2.20;;;;;;;0.43;58.02;100013.20;107315;1259;70326;-75
2023/11/19 09:39:48;;;;;;;3.30;2.40;;;;;;;0.48;57.57;100020.69;107795;1254;71181;-73
2023/11/19 09:42:15;;;;;;;3.00;2.60;;;;;;;0.49;57.62;100021.15;107614;1254;60436;-75
2023/11/19 09:44:42;;;;;;;3.20;2.20;;;;;;;0.51;57.67;100021.01;108228;1254;60198;-75
2023/11/19 09:47:09;;;;;;;4.90;2.50;;;;;;;0.56;57.71;100018.63;108506;1252;72307;-75
2023/11/19 09:49:37;;;;;;;6.30;2.80;;;;;;;0.61;57.58;100021.65;108666;1254;70262;-74
2023/11/19 09:52:04;;;;;;;3.30;2.40;;;;;;;0.64;57.39;100018.50;108694;1252;71229;-77
2023/11/19 09:54:32;;;;;;;8.30;4.00;;;;;;;0.65;57.44;100021.59;108479;1254;58351;-77
2023/11/19 09:57:02;;;;;;;3.20;2.40;;;;;;;0.65;57.36;100024.88;108578;1256;59511;-74
2023/11/19 09:59:31;;;;;;;3.60;2.70;;;;;;;0.66;57.27;100029.17;108459;1254;72587;-76
2023/11/19 10:01:58;;;;;;;4.00;2.70;;;;;;;0.64;56.97;100030.33;107805;1253;69049;-75
2023/11/19 10:04:25;;;;;;;4.60;2.90;;;;;;;0.60;57.02;100033.73;108417;1257;71359;-77
2023/11/19 10:06:53;;;;;;;2.70;2.30;;;;;;;0.59;57.16;100030.99;108801;1254;59229;-76
2023/11/19 10:09:19;;;;;;;3.10;2.10;;;;;;;0.56;57.09;100035.36;108189;1253;59820;-75
2023/11/19 10:11:46;;;;;;;3.90;2.70;;;;;;;0.51;57.23;100023.34;108676;1253;74058;-75
2023/11/19 10:14:13;;;;;;;3.80;2.60;;;;;;;0.44;57.29;100023.73;108180;1254;68822;-76
2023/11/19 10:16:40;;;;;;;3.40;2.60;;;;;;;0.40;57.22;100025.42;107810;1253;72864;-75
2023/11/19 10:19:06;;;;;;;3.30;2.60;;;;;;;0.37;57.30;100023.80;108084;1254;60334;-76
2023/11/19 10:21:33;;;;;;;5.00;3.10;;;;;;;0.35;57.40;100019.80;107455;1254;60287;-75
2023/11/19 10:24:00;;;;;;;5.10;3.10;;;;;;;0.36;57.51;100022.17;107444;1256;73823;-73
2023/11/19 10:26:28;;;;;;;3.70;2.80;;;;;;;0.34;57.59;100018.77;108219;1253;69882;-75
2023/11/19 10:28:55;;;;;;;5.50;3.30;;;;;;;0.34;57.76;100011.82;108939;1254;71248;-76
2023/11/19 10:31:26;;;;;;;3.90;3.00;;;;;;;0.36;57.71;100009.41;109013;1251;58901;-73
2023/11/19 10:33:53;;;;;;;4.20;2.90;;;;;;;0.40;57.60;100004.84;109368;1253;58890;-74
2023/11/19 10:36:20;;;;;;;4.80;3.00;;;;;;;0.43;57.63;99996.09;108225;1252;73022;-73
2023/11/19 10:38:56;;;;;;;5.90;3.50;;;;;;;0.45;57.76;99996.86;107656;1254;68880;-76
2023/11/19 10:41:30;;;;;;;5.50;3.80;;;;;;;0.46;57.60;99996.23;107706;1253;71453;-77
2023/11/19 10:43:59;;;;;;;4.40;3.00;;;;;;;0.46;57.69;99992.23;108375;1254;60748;-75
2023/11/19 10:46:41;;;;;;;4.10;2.90;;;;;;;0.50;57.85;99989.91;108539;1254;60337;-76
2023/11/19 10:49:08;;;;;;;4.40;3.40;;;;;;;0.54;57.88;99987.38;108485;1254;73774;-76
2023/11/19 10:51:35;;;;;;;3.40;2.80;;;;;;;0.57;57.73;99980.73;108663;1254;69216;-75
2023/11/19 10:54:06;;;;;;;4.80;2.40;;;;;;;0.59;57.56;99981.11;108542;1256;71366;-74
2023/11/19 10:56:33;;;;;;;9.60;6.20;;;;;;;0.62;57.39;99975.19;108220;1253;60543;-75
2023/11/19 10:59:01;;;;;;;11.40;7.30;;;;;;;0.62;57.17;99970.00;108661;1256;59059;-75
2023/11/19 11:01:34;;;;;;;10.10;4.60;;;;;;;0.62;57.37;99965.64;108226;1252;71574;-76
2023/11/19 11:04:01;;;;;;;6.00;3.90;;;;;;;0.64;57.45;99963.41;106439;1259;68937;-75
2023/11/19 11:06:28;;;;;;;5.20;3.30;;;;;;;0.65;57.21;99964.02;106377;1256;72665;-76
2023/11/19 11:08:55;;;;;;;4.60;3.40;;;;;;;0.66;57.00;99960.32;106098;1254;60322;-75
2023/11/19 11:11:23;;;;;;;4.50;3.10;;;;;;;0.64;57.19;99955.22;106007;1257;60527;-76
2023/11/19 11:13:52;;;;;;;4.80;3.20;;;;;;;0.63;57.28;99950.77;106098;1256;73870;-77
2023/11/19 11:16:18;;;;;;;5.10;4.10;;;;;;;0.61;57.17;99939.73;105720;1254;69500;-75
2023/11/19 11:18:46;;;;;;;4.20;3.40;;;;;;;0.58;57.36;99932.20;106470;1256;72479;-76
2023/11/19 11:21:16;;;;;;;4.20;3.40;;;;;;;0.58;57.30;99924.50;106404;1254;60442;-75
2023/11/19 11:24:13;;;;;;;4.90;3.50;;;;;;;0.57;57.20;99929.65;106268;1252;60399;-76
2023/11/19 11:27:12;;;;;;;4.60;3.40;;;;;;;0.53;57.12;99922.27;106255;1257;72745;-75